Terminal Aerodrome Forecast
Issued by NWS

Home | Current Version | Previous Version | Graphics & Text | Print | Product List | Glossary On
Versions: 1 2 3 4 5 6 7 8 9 10 11 12 13 14 15 16 17 18
000
FTUS42 KMHX 191700
TAFPGV
TAF
KPGV 191726Z 1918/2018 04012G20KT 5SM BR VCSH OVC015
     FM200500 02010KT P6SM VCSH OVC035
     FM201300 04015G22KT P6SM OVC050
      AMD LTD TO CLD VIS AND WIND=

USA.gov is the U.S. government's official web portal to all federal, state and local government web resources and services.